sensor_id;sensor_type;location;lat;lon;timestamp;temperature;humidity
5850;DHT22;2951;47.712;9.400;2023-07-29T00:00:34;18.00;99.90
5850;DHT22;2951;47.712;9.400;2023-07-29T00:03:01;18.00;99.90
5850;DHT22;2951;47.712;9.400;2023-07-29T00:05:28;18.00;99.90
5850;DHT22;2951;47.712;9.400;2023-07-29T00:07:54;18.00;99.90
5850;DHT22;2951;47.712;9.400;2023-07-29T00:10:21;18.10;99.90
5850;DHT22;2951;47.712;9.400;2023-07-29T00:12:48;18.10;99.90
5850;DHT22;2951;47.712;9.400;2023-07-29T00:15:15;18.10;99.90
5850;DHT22;2951;47.712;9.400;2023-07-29T00:17:41;18.10;99.90
5850;DHT22;2951;47.712;9.400;2023-07-29T00:20:08;18.10;99.90
5850;DHT22;2951;47.712;9.400;2023-07-29T00:22:35;18.20;99.90
5850;DHT22;2951;47.712;9.400;2023-07-29T00:25:02;18.20;99.90
5850;DHT22;2951;47.712;9.400;2023-07-29T00:27:28;18.20;99.90
5850;DHT22;2951;47.712;9.400;2023-07-29T00:29:55;18.20;99.90
5850;DHT22;2951;47.712;9.400;2023-07-29T00:32:22;18.20;99.90
5850;DHT22;2951;47.712;9.400;2023-07-29T00:34:49;18.20;99.90
5850;DHT22;2951;47.712;9.400;2023-07-29T00:37:15;18.30;99.90
5850;DHT22;2951;47.712;9.400;2023-07-29T00:39:42;18.30;99.90
5850;DHT22;2951;47.712;9.400;2023-07-29T00:42:08;18.20;99.90
5850;DHT22;2951;47.712;9.400;2023-07-29T00:44:35;18.20;99.90
5850;DHT22;2951;47.712;9.400;2023-07-29T00:47:02;18.20;99.90
5850;DHT22;2951;47.712;9.400;2023-07-29T00:49:29;18.30;99.90
5850;DHT22;2951;47.712;9.400;2023-07-29T00:51:56;18.20;99.90
5850;DHT22;2951;47.712;9.400;2023-07-29T00:54:22;18.20;99.90
5850;DHT22;2951;47.712;9.400;2023-07-29T00:56:49;18.20;99.90
5850;DHT22;2951;47.712;9.400;2023-07-29T00:59:16;18.20;99.90
5850;DHT22;2951;47.712;9.400;2023-07-29T01:01:43;18.20;99.90
5850;DHT22;2951;47.712;9.400;2023-07-29T01:04:09;18.10;99.90
5850;DHT22;2951;47.712;9.400;2023-07-29T01:09:09;18.00;99.90
5850;DHT22;2951;47.712;9.400;2023-07-29T01:11:52;18.00;99.90
5850;DHT22;2951;47.712;9.400;2023-07-29T01:14:26;18.00;99.90
5850;DHT22;2951;47.712;9.400;2023-07-29T01:16:55;17.90;99.90
5850;DHT22;2951;47.712;9.400;2023-07-29T01:22:08;18.00;99.90
5850;DHT22;2951;47.712;9.400;2023-07-29T01:24:36;18.00;99.90
5850;DHT22;2951;47.712;9.400;2023-07-29T01:27:03;18.10;99.90
5850;DHT22;2951;47.712;9.400;2023-07-29T01:29:31;18.10;99.90
5850;DHT22;2951;47.712;9.400;2023-07-29T01:32:00;18.20;99.90
5850;DHT22;2951;47.712;9.400;2023-07-29T01:34:32;18.20;99.90
5850;DHT22;2951;47.712;9.400;2023-07-29T01:37:01;18.20;99.90
5850;DHT22;2951;47.712;9.400;2023-07-29T01:39:29;18.20;99.90
5850;DHT22;2951;47.712;9.400;2023-07-29T01:41:59;18.20;99.90
5850;DHT22;2951;47.712;9.400;2023-07-29T01:44:25;18.20;99.90
5850;DHT22;2951;47.712;9.400;2023-07-29T01:46:55;18.10;99.90
5850;DHT22;2951;47.712;9.400;2023-07-29T01:49:22;18.10;99.90
5850;DHT22;2951;47.712;9.400;2023-07-29T01:51:49;18.10;99.90
5850;DHT22;2951;47.712;9.400;2023-07-29T01:54:15;18.00;99.90
5850;DHT22;2951;47.712;9.400;2023-07-29T01:56:42;18.00;99.90
5850;DHT22;2951;47.712;9.400;2023-07-29T01:59:09;18.00;99.90
5850;DHT22;2951;47.712;9.400;2023-07-29T02:01:35;18.00;99.90
5850;DHT22;2951;47.712;9.400;2023-07-29T02:04:02;18.00;99.90
5850;DHT22;2951;47.712;9.400;2023-07-29T02:06:29;18.00;99.90
5850;DHT22;2951;47.712;9.400;2023-07-29T02:08:55;18.10;99.90
5850;DHT22;2951;47.712;9.400;2023-07-29T02:11:22;18.10;99.90
5850;DHT22;2951;47.712;9.400;2023-07-29T02:13:54;18.10;99.90
5850;DHT22;2951;47.712;9.400;2023-07-29T02:16:21;18.10;99.90
5850;DHT22;2951;47.712;9.400;2023-07-29T02:18:49;18.10;99.90
5850;DHT22;2951;47.712;9.400;2023-07-29T02:21:17;18.10;99.90
5850;DHT22;2951;47.712;9.400;2023-07-29T02:23:44;18.00;99.90
5850;DHT22;2951;47.712;9.400;2023-07-29T02:26:10;18.00;99.90
5850;DHT22;2951;47.712;9.400;2023-07-29T02:28:37;18.00;99.90
5850;DHT22;2951;47.712;9.400;2023-07-29T02:31:17;18.00;99.90
5850;DHT22;2951;47.712;9.400;2023-07-29T02:33:44;18.00;99.90
5850;DHT22;2951;47.712;9.400;2023-07-29T02:36:11;18.00;99.90
5850;DHT22;2951;47.712;9.400;2023-07-29T02:38:39;18.00;99.90
5850;DHT22;2951;47.712;9.400;2023-07-29T02:41:05;18.00;99.90
5850;DHT22;2951;47.712;9.400;2023-07-29T02:43:33;17.90;99.90
5850;DHT22;2951;47.712;9.400;2023-07-29T02:45:59;17.90;99.90
5850;DHT22;2951;47.712;9.400;2023-07-29T02:48:26;17.90;99.90
5850;DHT22;2951;47.712;9.400;2023-07-29T02:50:53;17.90;99.90
5850;DHT22;2951;47.712;9.400;2023-07-29T02:53:20;17.90;99.90
5850;DHT22;2951;47.712;9.400;2023-07-29T02:55:46;18.00;99.90
5850;DHT22;2951;47.712;9.400;2023-07-29T02:58:13;18.00;99.90
5850;DHT22;2951;47.712;9.400;2023-07-29T03:00:40;18.00;99.90
5850;DHT22;2951;47.712;9.400;2023-07-29T03:03:09;18.00;99.90
5850;DHT22;2951;47.712;9.400;2023-07-29T03:05:36;18.00;99.90
5850;DHT22;2951;47.712;9.400;2023-07-29T03:08:04;17.90;99.90
5850;DHT22;2951;47.712;9.400;2023-07-29T03:10:30;17.90;99.90
5850;DHT22;2951;47.712;9.400;2023-07-29T03:12:57;17.80;99.90
5850;DHT22;2951;47.712;9.400;2023-07-29T03:15:24;17.70;99.90
5850;DHT22;2951;47.712;9.400;2023-07-29T03:17:52;17.60;99.90
5850;DHT22;2951;47.712;9.400;2023-07-29T03:20:19;17.60;99.90
5850;DHT22;2951;47.712;9.400;2023-07-29T03:22:46;17.60;99.90
5850;DHT22;2951;47.712;9.400;2023-07-29T03:25:13;17.60;99.90
5850;DHT22;2951;47.712;9.400;2023-07-29T03:27:40;17.60;99.90
5850;DHT22;2951;47.712;9.400;2023-07-29T03:30:07;17.60;99.90
5850;DHT22;2951;47.712;9.400;2023-07-29T03:32:34;17.60;99.90
5850;DHT22;2951;47.712;9.400;2023-07-29T03:35:00;17.60;99.90
5850;DHT22;2951;47.712;9.400;2023-07-29T03:37:27;17.60;99.90
5850;DHT22;2951;47.712;9.400;2023-07-29T03:39:54;17.60;99.90
5850;DHT22;2951;47.712;9.400;2023-07-29T03:42:21;17.60;99.90
5850;DHT22;2951;47.712;9.400;2023-07-29T03:44:47;17.60;99.90
5850;DHT22;2951;47.712;9.400;2023-07-29T03:47:15;17.60;99.90
5850;DHT22;2951;47.712;9.400;2023-07-29T03:49:42;17.50;99.90
5850;DHT22;2951;47.712;9.400;2023-07-29T03:52:08;17.50;99.90
5850;DHT22;2951;47.712;9.400;2023-07-29T03:54:35;17.50;99.90
5850;DHT22;2951;47.712;9.400;2023-07-29T03:57:02;17.50;99.90
5850;DHT22;2951;47.712;9.400;2023-07-29T03:59:29;17.50;99.90
5850;DHT22;2951;47.712;9.400;2023-07-29T04:01:56;17.50;99.90
5850;DHT22;2951;47.712;9.400;2023-07-29T04:04:22;17.60;99.90
5850;DHT22;2951;47.712;9.400;2023-07-29T04:06:49;17.60;99.90
5850;DHT22;2951;47.712;9.400;2023-07-29T04:09:16;17.60;99.90
5850;DHT22;2951;47.712;9.400;2023-07-29T04:11:44;17.50;99.90
5850;DHT22;2951;47.712;9.400;2023-07-29T04:14:10;17.50;99.90
5850;DHT22;2951;47.712;9.400;2023-07-29T04:16:37;17.40;99.90
5850;DHT22;2951;47.712;9.400;2023-07-29T04:19:04;17.40;99.90
5850;DHT22;2951;47.712;9.400;2023-07-29T04:21:31;17.40;99.90
5850;DHT22;2951;47.712;9.400;2023-07-29T04:23:58;17.30;99.90
5850;DHT22;2951;47.712;9.400;2023-07-29T04:26:24;17.30;99.90
5850;DHT22;2951;47.712;9.400;2023-07-29T04:28:51;17.40;99.90
5850;DHT22;2951;47.712;9.400;2023-07-29T04:31:18;17.40;99.90
5850;DHT22;2951;47.712;9.400;2023-07-29T04:33:45;17.40;99.90
5850;DHT22;2951;47.712;9.400;2023-07-29T04:36:11;17.40;99.90
5850;DHT22;2951;47.712;9.400;2023-07-29T04:38:38;17.30;99.90
5850;DHT22;2951;47.712;9.400;2023-07-29T04:41:05;17.10;99.90
5850;DHT22;2951;47.712;9.400;2023-07-29T04:43:33;17.00;99.90
5850;DHT22;2951;47.712;9.400;2023-07-29T04:46:00;17.00;99.90
5850;DHT22;2951;47.712;9.400;2023-07-29T04:48:27;17.10;99.90
5850;DHT22;2951;47.712;9.400;2023-07-29T04:50:53;17.20;99.90
5850;DHT22;2951;47.712;9.400;2023-07-29T04:53:20;17.20;99.90
5850;DHT22;2951;47.712;9.400;2023-07-29T04:55:47;17.20;99.90
5850;DHT22;2951;47.712;9.400;2023-07-29T04:58:14;17.20;99.90
5850;DHT22;2951;47.712;9.400;2023-07-29T05:00:40;17.20;99.90
5850;DHT22;2951;47.712;9.400;2023-07-29T05:03:07;17.30;99.90
5850;DHT22;2951;47.712;9.400;2023-07-29T05:05:34;17.30;99.90
5850;DHT22;2951;47.712;9.400;2023-07-29T05:08:00;17.40;99.90
5850;DHT22;2951;47.712;9.400;2023-07-29T05:10:27;17.40;99.90
5850;DHT22;2951;47.712;9.400;2023-07-29T05:12:54;17.40;99.90
5850;DHT22;2951;47.712;9.400;2023-07-29T05:15:21;17.40;99.90
5850;DHT22;2951;47.712;9.400;2023-07-29T05:17:47;17.40;99.90
5850;DHT22;2951;47.712;9.400;2023-07-29T05:20:14;17.50;99.90
5850;DHT22;2951;47.712;9.400;2023-07-29T05:22:41;17.60;99.90
5850;DHT22;2951;47.712;9.400;2023-07-29T05:25:07;17.70;99.90
5850;DHT22;2951;47.712;9.400;2023-07-29T05:27:34;17.80;99.90
5850;DHT22;2951;47.712;9.400;2023-07-29T05:30:01;17.80;99.90
5850;DHT22;2951;47.712;9.400;2023-07-29T05:32:28;17.90;99.90
5850;DHT22;2951;47.712;9.400;2023-07-29T05:34:56;17.90;99.90
5850;DHT22;2951;47.712;9.400;2023-07-29T05:37:22;18.00;99.90
5850;DHT22;2951;47.712;9.400;2023-07-29T05:39:49;18.10;99.90
5850;DHT22;2951;47.712;9.400;2023-07-29T05:42:16;18.20;99.90
5850;DHT22;2951;47.712;9.400;2023-07-29T05:44:42;18.40;99.90
5850;DHT22;2951;47.712;9.400;2023-07-29T05:47:09;18.60;99.90
5850;DHT22;2951;47.712;9.400;2023-07-29T05:49:36;18.80;99.90
5850;DHT22;2951;47.712;9.400;2023-07-29T05:52:03;18.90;99.90
5850;DHT22;2951;47.712;9.400;2023-07-29T05:54:29;19.10;99.90
5850;DHT22;2951;47.712;9.400;2023-07-29T05:56:56;19.10;99.90
5850;DHT22;2951;47.712;9.400;2023-07-29T05:59:23;19.00;99.90
5850;DHT22;2951;47.712;9.400;2023-07-29T06:01:50;19.20;99.90
5850;DHT22;2951;47.712;9.400;2023-07-29T06:04:17;19.10;99.90
5850;DHT22;2951;47.712;9.400;2023-07-29T06:06:43;19.10;99.90
5850;DHT22;2951;47.712;9.400;2023-07-29T06:09:10;19.10;99.90
5850;DHT22;2951;47.712;9.400;2023-07-29T06:11:37;19.00;99.90
5850;DHT22;2951;47.712;9.400;2023-07-29T06:14:04;19.00;99.90
5850;DHT22;2951;47.712;9.400;2023-07-29T06:16:31;19.00;99.90
5850;DHT22;2951;47.712;9.400;2023-07-29T06:18:58;19.10;99.90
5850;DHT22;2951;47.712;9.400;2023-07-29T06:21:25;19.20;99.90
5850;DHT22;2951;47.712;9.400;2023-07-29T06:23:51;19.20;99.90
5850;DHT22;2951;47.712;9.400;2023-07-29T06:26:18;19.20;99.90
5850;DHT22;2951;47.712;9.400;2023-07-29T06:28:45;19.40;99.90
5850;DHT22;2951;47.712;9.400;2023-07-29T06:31:12;19.60;99.90
5850;DHT22;2951;47.712;9.400;2023-07-29T06:33:38;19.70;99.90
5850;DHT22;2951;47.712;9.400;2023-07-29T06:36:05;19.90;99.90
5850;DHT22;2951;47.712;9.400;2023-07-29T06:38:32;19.90;99.90
5850;DHT22;2951;47.712;9.400;2023-07-29T06:40:58;20.10;99.90
5850;DHT22;2951;47.712;9.400;2023-07-29T06:43:25;20.20;99.90
5850;DHT22;2951;47.712;9.400;2023-07-29T06:45:52;20.00;99.90
5850;DHT22;2951;47.712;9.400;2023-07-29T06:48:19;20.00;99.90
5850;DHT22;2951;47.712;9.400;2023-07-29T06:50:46;19.90;99.90
5850;DHT22;2951;47.712;9.400;2023-07-29T06:53:13;19.90;99.90
5850;DHT22;2951;47.712;9.400;2023-07-29T06:55:40;20.00;99.90
5850;DHT22;2951;47.712;9.400;2023-07-29T06:58:07;20.00;99.90
5850;DHT22;2951;47.712;9.400;2023-07-29T07:00:34;20.20;99.90
5850;DHT22;2951;47.712;9.400;2023-07-29T07:03:00;20.40;99.90
5850;DHT22;2951;47.712;9.400;2023-07-29T07:05:27;20.60;99.90
5850;DHT22;2951;47.712;9.400;2023-07-29T07:07:54;20.80;99.90
5850;DHT22;2951;47.712;9.400;2023-07-29T07:10:21;20.80;99.90
5850;DHT22;2951;47.712;9.400;2023-07-29T07:12:48;20.80;99.90
5850;DHT22;2951;47.712;9.400;2023-07-29T07:15:15;21.00;99.90
5850;DHT22;2951;47.712;9.400;2023-07-29T07:17:41;21.10;99.90
5850;DHT22;2951;47.712;9.400;2023-07-29T07:20:08;21.30;99.90
5850;DHT22;2951;47.712;9.400;2023-07-29T07:22:35;21.50;99.90
5850;DHT22;2951;47.712;9.400;2023-07-29T07:25:01;21.70;99.90
5850;DHT22;2951;47.712;9.400;2023-07-29T07:27:28;21.80;99.90
5850;DHT22;2951;47.712;9.400;2023-07-29T07:29:55;21.90;99.90
5850;DHT22;2951;47.712;9.400;2023-07-29T07:32:21;21.80;99.90
5850;DHT22;2951;47.712;9.400;2023-07-29T07:34:48;21.60;99.90
5850;DHT22;2951;47.712;9.400;2023-07-29T07:37:15;21.60;99.90
5850;DHT22;2951;47.712;9.400;2023-07-29T07:39:42;21.60;99.90
5850;DHT22;2951;47.712;9.400;2023-07-29T07:42:08;21.70;99.90
5850;DHT22;2951;47.712;9.400;2023-07-29T07:44:35;22.10;99.90
5850;DHT22;2951;47.712;9.400;2023-07-29T07:47:02;22.20;99.90
5850;DHT22;2951;47.712;9.400;2023-07-29T07:49:30;22.10;99.90
5850;DHT22;2951;47.712;9.400;2023-07-29T07:51:57;22.20;99.90
5850;DHT22;2951;47.712;9.400;2023-07-29T07:54:24;22.20;99.90
5850;DHT22;2951;47.712;9.400;2023-07-29T07:56:51;22.20;99.90
5850;DHT22;2951;47.712;9.400;2023-07-29T07:59:17;22.30;99.90
5850;DHT22;2951;47.712;9.400;2023-07-29T08:01:44;22.50;99.90
5850;DHT22;2951;47.712;9.400;2023-07-29T08:04:11;22.40;99.90
5850;DHT22;2951;47.712;9.400;2023-07-29T08:06:37;22.50;99.90
5850;DHT22;2951;47.712;9.400;2023-07-29T08:09:04;22.80;99.90
5850;DHT22;2951;47.712;9.400;2023-07-29T08:11:31;22.80;99.90
5850;DHT22;2951;47.712;9.400;2023-07-29T08:13:58;22.90;99.90
5850;DHT22;2951;47.712;9.400;2023-07-29T08:16:25;22.90;99.90
5850;DHT22;2951;47.712;9.400;2023-07-29T08:18:52;23.00;99.90
5850;DHT22;2951;47.712;9.400;2023-07-29T08:21:19;23.00;99.90
5850;DHT22;2951;47.712;9.400;2023-07-29T08:23:46;23.10;99.90
5850;DHT22;2951;47.712;9.400;2023-07-29T08:26:12;23.20;99.90
5850;DHT22;2951;47.712;9.400;2023-07-29T08:28:39;23.30;99.90
5850;DHT22;2951;47.712;9.400;2023-07-29T08:31:06;23.10;99.90
5850;DHT22;2951;47.712;9.400;2023-07-29T08:33:33;22.70;99.90
5850;DHT22;2951;47.712;9.400;2023-07-29T08:36:01;22.80;99.90
5850;DHT22;2951;47.712;9.400;2023-07-29T08:38:28;22.90;99.90
5850;DHT22;2951;47.712;9.400;2023-07-29T08:43:22;23.20;99.90
5850;DHT22;2951;47.712;9.400;2023-07-29T08:45:51;23.30;99.90
5850;DHT22;2951;47.712;9.400;2023-07-29T08:48:19;23.30;99.90
5850;DHT22;2951;47.712;9.400;2023-07-29T08:50:50;23.30;99.90
5850;DHT22;2951;47.712;9.400;2023-07-29T08:53:17;22.90;99.90
5850;DHT22;2951;47.712;9.400;2023-07-29T08:55:44;22.90;99.90
5850;DHT22;2951;47.712;9.400;2023-07-29T08:58:11;23.10;99.90
5850;DHT22;2951;47.712;9.400;2023-07-29T09:00:37;23.20;99.90
5850;DHT22;2951;47.712;9.400;2023-07-29T09:03:05;23.40;99.90
5850;DHT22;2951;47.712;9.400;2023-07-29T09:05:33;23.50;99.90
5850;DHT22;2951;47.712;9.400;2023-07-29T09:08:02;23.60;99.90
5850;DHT22;2951;47.712;9.400;2023-07-29T09:10:29;23.60;99.90
5850;DHT22;2951;47.712;9.400;2023-07-29T09:12:56;23.60;99.90
5850;DHT22;2951;47.712;9.400;2023-07-29T09:15:27;23.80;99.90
5850;DHT22;2951;47.712;9.400;2023-07-29T09:17:55;23.90;99.90
5850;DHT22;2951;47.712;9.400;2023-07-29T09:20:25;23.80;99.90
5850;DHT22;2951;47.712;9.400;2023-07-29T09:22:55;23.70;99.90
5850;DHT22;2951;47.712;9.400;2023-07-29T09:25:27;23.90;99.90
5850;DHT22;2951;47.712;9.400;2023-07-29T09:28:01;24.10;99.90
5850;DHT22;2951;47.712;9.400;2023-07-29T09:30:28;24.00;99.90
5850;DHT22;2951;47.712;9.400;2023-07-29T09:32:55;24.10;99.90
5850;DHT22;2951;47.712;9.400;2023-07-29T09:35:22;23.80;99.90
5850;DHT22;2951;47.712;9.400;2023-07-29T09:37:50;23.90;99.90
5850;DHT22;2951;47.712;9.400;2023-07-29T09:40:17;23.90;99.90
5850;DHT22;2951;47.712;9.400;2023-07-29T09:42:48;24.20;99.90
5850;DHT22;2951;47.712;9.400;2023-07-29T09:45:23;24.00;99.90
5850;DHT22;2951;47.712;9.400;2023-07-29T09:47:50;24.00;99.90
5850;DHT22;2951;47.712;9.400;2023-07-29T09:50:17;24.10;99.90
5850;DHT22;2951;47.712;9.400;2023-07-29T09:52:44;24.00;99.90
5850;DHT22;2951;47.712;9.400;2023-07-29T09:55:11;23.90;99.90
5850;DHT22;2951;47.712;9.400;2023-07-29T09:57:38;23.80;99.90
5850;DHT22;2951;47.712;9.400;2023-07-29T10:00:06;23.90;99.90
5850;DHT22;2951;47.712;9.400;2023-07-29T10:02:41;23.90;99.90
5850;DHT22;2951;47.712;9.400;2023-07-29T10:05:08;23.90;99.90
5850;DHT22;2951;47.712;9.400;2023-07-29T10:07:38;24.00;99.90
5850;DHT22;2951;47.712;9.400;2023-07-29T10:10:05;23.90;99.90
5850;DHT22;2951;47.712;9.400;2023-07-29T10:12:34;23.80;99.90
5850;DHT22;2951;47.712;9.400;2023-07-29T10:15:02;24.00;99.90
5850;DHT22;2951;47.712;9.400;2023-07-29T10:17:30;24.10;99.90
5850;DHT22;2951;47.712;9.400;2023-07-29T10:19:58;24.20;99.90
5850;DHT22;2951;47.712;9.400;2023-07-29T10:22:27;24.40;99.90
5850;DHT22;2951;47.712;9.400;2023-07-29T10:24:56;24.60;99.90
5850;DHT22;2951;47.712;9.400;2023-07-29T10:27:25;25.00;99.90
5850;DHT22;2951;47.712;9.400;2023-07-29T10:29:53;25.10;99.90
5850;DHT22;2951;47.712;9.400;2023-07-29T10:32:23;24.90;99.90
5850;DHT22;2951;47.712;9.400;2023-07-29T10:34:51;25.10;99.90
5850;DHT22;2951;47.712;9.400;2023-07-29T10:37:18;25.10;99.90
5850;DHT22;2951;47.712;9.400;2023-07-29T10:39:52;25.00;99.90
5850;DHT22;2951;47.712;9.400;2023-07-29T10:42:19;25.10;99.90
5850;DHT22;2951;47.712;9.400;2023-07-29T10:44:49;25.10;99.90
5850;DHT22;2951;47.712;9.400;2023-07-29T10:47:23;25.30;99.90
5850;DHT22;2951;47.712;9.400;2023-07-29T10:49:54;25.50;99.90
5850;DHT22;2951;47.712;9.400;2023-07-29T10:55:00;25.90;99.90
5850;DHT22;2951;47.712;9.400;2023-07-29T10:57:37;25.80;99.90
5850;DHT22;2951;47.712;9.400;2023-07-29T11:00:05;25.90;99.90
5850;DHT22;2951;47.712;9.400;2023-07-29T11:02:33;25.70;99.90
5850;DHT22;2951;47.712;9.400;2023-07-29T11:05:04;25.80;99.90
5850;DHT22;2951;47.712;9.400;2023-07-29T11:07:32;25.90;99.90
5850;DHT22;2951;47.712;9.400;2023-07-29T11:10:09;25.70;99.90
5850;DHT22;2951;47.712;9.400;2023-07-29T11:15:12;25.60;99.90
5850;DHT22;2951;47.712;9.400;2023-07-29T11:20:09;26.00;99.90
5850;DHT22;2951;47.712;9.400;2023-07-29T11:22:36;26.00;99.90
5850;DHT22;2951;47.712;9.400;2023-07-29T11:25:03;26.10;99.90
5850;DHT22;2951;47.712;9.400;2023-07-29T11:27:30;25.80;99.90
5850;DHT22;2951;47.712;9.400;2023-07-29T11:29:57;26.00;99.90
5850;DHT22;2951;47.712;9.400;2023-07-29T11:32:25;26.00;99.90
5850;DHT22;2951;47.712;9.400;2023-07-29T11:34:52;26.00;99.90
5850;DHT22;2951;47.712;9.400;2023-07-29T11:37:19;25.90;99.90
5850;DHT22;2951;47.712;9.400;2023-07-29T11:39:47;26.00;99.90
5850;DHT22;2951;47.712;9.400;2023-07-29T11:42:14;26.00;99.90
5850;DHT22;2951;47.712;9.400;2023-07-29T11:44:41;26.20;99.90
5850;DHT22;2951;47.712;9.400;2023-07-29T11:47:09;26.40;99.90
5850;DHT22;2951;47.712;9.400;2023-07-29T11:49:36;26.40;99.90
5850;DHT22;2951;47.712;9.400;2023-07-29T11:52:05;26.30;99.90
5850;DHT22;2951;47.712;9.400;2023-07-29T11:54:33;26.40;99.90
5850;DHT22;2951;47.712;9.400;2023-07-29T11:56:59;26.60;99.90
5850;DHT22;2951;47.712;9.400;2023-07-29T11:59:27;26.40;99.90
5850;DHT22;2951;47.712;9.400;2023-07-29T12:01:53;26.60;99.90
5850;DHT22;2951;47.712;9.400;2023-07-29T12:04:20;26.70;99.90
5850;DHT22;2951;47.712;9.400;2023-07-29T12:06:47;26.80;99.90
5850;DHT22;2951;47.712;9.400;2023-07-29T12:09:14;26.80;99.90
5850;DHT22;2951;47.712;9.400;2023-07-29T12:11:41;26.80;99.90
5850;DHT22;2951;47.712;9.400;2023-07-29T12:14:08;27.10;99.90
5850;DHT22;2951;47.712;9.400;2023-07-29T12:16:44;27.30;99.90
5850;DHT22;2951;47.712;9.400;2023-07-29T12:19:14;27.30;99.90
5850;DHT22;2951;47.712;9.400;2023-07-29T12:21:41;27.40;99.90
5850;DHT22;2951;47.712;9.400;2023-07-29T12:24:08;27.30;99.90
5850;DHT22;2951;47.712;9.400;2023-07-29T12:26:35;27.00;99.90
5850;DHT22;2951;47.712;9.400;2023-07-29T12:29:12;26.30;99.90
5850;DHT22;2951;47.712;9.400;2023-07-29T12:31:39;26.20;99.90
5850;DHT22;2951;47.712;9.400;2023-07-29T12:34:06;26.20;99.90
5850;DHT22;2951;47.712;9.400;2023-07-29T12:36:42;26.00;99.90
5850;DHT22;2951;47.712;9.400;2023-07-29T12:39:17;25.80;99.90
5850;DHT22;2951;47.712;9.400;2023-07-29T12:41:44;25.70;99.90
5850;DHT22;2951;47.712;9.400;2023-07-29T12:44:11;25.60;99.90
5850;DHT22;2951;47.712;9.400;2023-07-29T12:46:39;25.40;99.90
5850;DHT22;2951;47.712;9.400;2023-07-29T12:49:06;25.20;99.90
5850;DHT22;2951;47.712;9.400;2023-07-29T12:51:33;24.90;99.90
5850;DHT22;2951;47.712;9.400;2023-07-29T12:54:01;24.70;99.90
5850;DHT22;2951;47.712;9.400;2023-07-29T12:56:29;24.40;99.90
5850;DHT22;2951;47.712;9.400;2023-07-29T12:58:58;24.30;99.90
5850;DHT22;2951;47.712;9.400;2023-07-29T13:01:30;24.10;99.90
5850;DHT22;2951;47.712;9.400;2023-07-29T13:03:57;24.10;99.90
5850;DHT22;2951;47.712;9.400;2023-07-29T13:06:24;24.00;99.90
5850;DHT22;2951;47.712;9.400;2023-07-29T13:08:51;24.00;99.90
5850;DHT22;2951;47.712;9.400;2023-07-29T13:11:17;23.90;99.90
5850;DHT22;2951;47.712;9.400;2023-07-29T13:13:44;23.90;99.90
5850;DHT22;2951;47.712;9.400;2023-07-29T13:16:12;23.80;99.90
5850;DHT22;2951;47.712;9.400;2023-07-29T13:18:39;23.70;99.90
5850;DHT22;2951;47.712;9.400;2023-07-29T13:21:07;23.50;99.90
5850;DHT22;2951;47.712;9.400;2023-07-29T13:23:34;23.30;99.90
5850;DHT22;2951;47.712;9.400;2023-07-29T13:26:00;23.50;99.90
5850;DHT22;2951;47.712;9.400;2023-07-29T13:28:27;23.40;99.90
5850;DHT22;2951;47.712;9.400;2023-07-29T13:30:54;23.40;99.90
5850;DHT22;2951;47.712;9.400;2023-07-29T13:33:21;23.40;99.90
5850;DHT22;2951;47.712;9.400;2023-07-29T13:35:47;23.20;99.90
5850;DHT22;2951;47.712;9.400;2023-07-29T13:38:14;22.90;99.90
5850;DHT22;2951;47.712;9.400;2023-07-29T13:40:41;22.80;99.90
5850;DHT22;2951;47.712;9.400;2023-07-29T13:43:08;22.70;99.90
5850;DHT22;2951;47.712;9.400;2023-07-29T13:45:35;22.50;99.90
5850;DHT22;2951;47.712;9.400;2023-07-29T13:48:02;22.40;99.90
5850;DHT22;2951;47.712;9.400;2023-07-29T13:50:28;22.20;99.90
5850;DHT22;2951;47.712;9.400;2023-07-29T13:52:55;22.00;99.90
5850;DHT22;2951;47.712;9.400;2023-07-29T13:55:22;21.90;99.90
5850;DHT22;2951;47.712;9.400;2023-07-29T13:57:48;21.80;99.90
5850;DHT22;2951;47.712;9.400;2023-07-29T14:00:15;21.70;99.90
5850;DHT22;2951;47.712;9.400;2023-07-29T14:02:42;21.60;99.90
5850;DHT22;2951;47.712;9.400;2023-07-29T14:05:10;21.50;99.90
5850;DHT22;2951;47.712;9.400;2023-07-29T14:07:38;21.50;99.90
5850;DHT22;2951;47.712;9.400;2023-07-29T14:10:05;21.30;99.90
5850;DHT22;2951;47.712;9.400;2023-07-29T14:12:32;21.20;99.90
5850;DHT22;2951;47.712;9.400;2023-07-29T14:14:58;21.00;99.90
5850;DHT22;2951;47.712;9.400;2023-07-29T14:17:25;21.00;99.90
5850;DHT22;2951;47.712;9.400;2023-07-29T14:19:52;20.90;99.90
5850;DHT22;2951;47.712;9.400;2023-07-29T14:22:18;20.90;99.90
5850;DHT22;2951;47.712;9.400;2023-07-29T14:24:45;20.70;99.90
5850;DHT22;2951;47.712;9.400;2023-07-29T14:27:12;20.70;99.90
5850;DHT22;2951;47.712;9.400;2023-07-29T14:29:38;20.70;99.90
5850;DHT22;2951;47.712;9.400;2023-07-29T14:32:05;20.80;99.90
5850;DHT22;2951;47.712;9.400;2023-07-29T14:34:32;20.90;99.90
5850;DHT22;2951;47.712;9.400;2023-07-29T14:36:58;21.20;99.90
5850;DHT22;2951;47.712;9.400;2023-07-29T14:39:25;21.20;99.90
5850;DHT22;2951;47.712;9.400;2023-07-29T14:41:52;21.30;99.90
5850;DHT22;2951;47.712;9.400;2023-07-29T14:44:19;21.30;99.90
5850;DHT22;2951;47.712;9.400;2023-07-29T14:46:45;21.30;99.90
5850;DHT22;2951;47.712;9.400;2023-07-29T14:49:12;21.50;99.90
5850;DHT22;2951;47.712;9.400;2023-07-29T14:51:39;21.70;99.90
5850;DHT22;2951;47.712;9.400;2023-07-29T14:54:06;21.80;99.90
5850;DHT22;2951;47.712;9.400;2023-07-29T14:56:32;21.90;99.90
5850;DHT22;2951;47.712;9.400;2023-07-29T14:58:59;22.00;99.90
5850;DHT22;2951;47.712;9.400;2023-07-29T15:01:26;22.10;99.90
5850;DHT22;2951;47.712;9.400;2023-07-29T15:03:53;21.70;99.90
5850;DHT22;2951;47.712;9.400;2023-07-29T15:06:20;21.70;99.90
5850;DHT22;2951;47.712;9.400;2023-07-29T15:08:46;21.50;99.90
5850;DHT22;2951;47.712;9.400;2023-07-29T15:11:13;21.40;99.90
5850;DHT22;2951;47.712;9.400;2023-07-29T15:13:40;21.30;99.90
5850;DHT22;2951;47.712;9.400;2023-07-29T15:16:06;21.00;99.90
5850;DHT22;2951;47.712;9.400;2023-07-29T15:18:33;21.00;99.90
5850;DHT22;2951;47.712;9.400;2023-07-29T15:21:01;20.90;99.90
5850;DHT22;2951;47.712;9.400;2023-07-29T15:23:28;20.90;99.90
5850;DHT22;2951;47.712;9.400;2023-07-29T15:25:56;20.70;99.90
5850;DHT22;2951;47.712;9.400;2023-07-29T15:28:23;20.90;99.90
5850;DHT22;2951;47.712;9.400;2023-07-29T15:30:51;20.80;99.90
5850;DHT22;2951;47.712;9.400;2023-07-29T15:33:18;20.80;99.90
5850;DHT22;2951;47.712;9.400;2023-07-29T15:35:45;20.70;99.90
5850;DHT22;2951;47.712;9.400;2023-07-29T15:38:11;20.70;99.90
5850;DHT22;2951;47.712;9.400;2023-07-29T15:40:38;20.80;99.90
5850;DHT22;2951;47.712;9.400;2023-07-29T15:43:05;21.00;99.90
5850;DHT22;2951;47.712;9.400;2023-07-29T15:45:31;21.00;99.90
5850;DHT22;2951;47.712;9.400;2023-07-29T15:47:58;21.10;99.90
5850;DHT22;2951;47.712;9.400;2023-07-29T15:50:25;21.10;99.90
5850;DHT22;2951;47.712;9.400;2023-07-29T15:52:52;20.90;99.90
5850;DHT22;2951;47.712;9.400;2023-07-29T15:55:18;20.80;99.90
5850;DHT22;2951;47.712;9.400;2023-07-29T15:57:45;20.80;99.90
5850;DHT22;2951;47.712;9.400;2023-07-29T16:00:12;20.70;99.90
5850;DHT22;2951;47.712;9.400;2023-07-29T16:02:39;20.70;99.90
5850;DHT22;2951;47.712;9.400;2023-07-29T16:05:06;20.60;99.90
5850;DHT22;2951;47.712;9.400;2023-07-29T16:07:33;20.60;99.90
5850;DHT22;2951;47.712;9.400;2023-07-29T16:10:00;20.60;99.90
5850;DHT22;2951;47.712;9.400;2023-07-29T16:12:26;20.70;99.90
5850;DHT22;2951;47.712;9.400;2023-07-29T16:14:53;20.70;99.90
5850;DHT22;2951;47.712;9.400;2023-07-29T16:17:20;20.80;99.90